createdAt,value
2022-12-18T00:01:36.527Z,13.93
2022-12-18T00:04:06.564Z,17.20
2022-12-18T00:06:33.948Z,17.65
2022-12-18T00:09:01.979Z,14.73
2022-12-18T00:11:31.391Z,14.60
2022-12-18T00:14:00.251Z,16.13
2022-12-18T00:16:28.691Z,16.30
2022-12-18T00:18:59.231Z,12.85
2022-12-18T00:21:27.317Z,14.25
2022-12-18T00:23:56.151Z,13.95
2022-12-18T00:26:29.404Z,14.38
2022-12-18T00:29:08.568Z,13.83
2022-12-18T00:31:35.857Z,13.18
2022-12-18T00:34:03.114Z,14.20
2022-12-18T00:36:33.260Z,12.75
2022-12-18T00:39:02.157Z,13.95
2022-12-18T00:41:29.236Z,11.60
2022-12-18T00:43:57.467Z,12.40
2022-12-18T00:46:24.249Z,13.23
2022-12-18T00:48:51.065Z,12.27
2022-12-18T00:51:17.866Z,13.75
2022-12-18T00:53:44.826Z,13.23
2022-12-18T00:56:11.659Z,12.38
2022-12-18T00:58:38.498Z,13.55
2022-12-18T01:01:06.617Z,11.65
2022-12-18T01:03:36.296Z,15.07
2022-12-18T01:06:12.729Z,12.13
2022-12-18T01:08:40.309Z,11.43
2022-12-18T01:11:14.890Z,12.13
2022-12-18T01:13:42.700Z,12.98
2022-12-18T01:16:12.115Z,12.60
2022-12-18T01:18:38.975Z,12.23
2022-12-18T01:21:15.449Z,13.10
2022-12-18T01:23:42.764Z,11.60
2022-12-18T01:26:17.262Z,11.32
2022-12-18T01:28:44.501Z,10.32
2022-12-18T01:31:27.229Z,10.73
2022-12-18T01:33:56.404Z,10.80
2022-12-18T01:36:28.637Z,13.25
2022-12-18T01:38:56.562Z,10.98
2022-12-18T01:41:27.421Z,10.35
2022-12-18T01:43:57.692Z,10.63
2022-12-18T01:46:25.972Z,9.15
2022-12-18T01:49:02.348Z,9.85
2022-12-18T01:51:31.786Z,11.73
2022-12-18T01:54:00.393Z,9.20
2022-12-18T01:56:28.034Z,9.03
2022-12-18T01:59:14.916Z,9.75
2022-12-18T02:01:41.797Z,9.75
2022-12-18T02:04:22.182Z,10.82
2022-12-18T02:06:56.764Z,11.30
2022-12-18T02:09:33.473Z,9.80
2022-12-18T02:12:17.903Z,11.07
2022-12-18T02:14:47.573Z,12.02
2022-12-18T02:17:23.444Z,12.43
2022-12-18T02:19:56.784Z,14.48
2022-12-18T02:22:45.407Z,16.27
2022-12-18T02:25:27.153Z,14.43
2022-12-18T02:27:57.685Z,14.82
2022-12-18T02:30:25.353Z,16.13
2022-12-18T02:32:54.955Z,16.42
2022-12-18T02:35:25.940Z,13.33
2022-12-18T02:37:56.404Z,14.88
2022-12-18T02:40:26.525Z,15.20
2022-12-18T02:42:53.334Z,15.88
2022-12-18T02:45:21.323Z,16.55
2022-12-18T02:47:51.158Z,15.20
2022-12-18T02:50:35.255Z,17.35
2022-12-18T02:53:18.698Z,14.88
2022-12-18T02:55:46.801Z,14.88
2022-12-18T02:58:22.146Z,16.83
2022-12-18T03:01:00.014Z,11.97
2022-12-18T03:03:39.375Z,15.35
2022-12-18T03:06:12.057Z,11.70
2022-12-18T03:08:53.038Z,13.07
2022-12-18T03:11:20.059Z,12.00
2022-12-18T03:13:53.857Z,10.97
2022-12-18T03:16:29.826Z,10.07
2022-12-18T03:19:01.949Z,12.63
2022-12-18T03:21:36.469Z,12.27
2022-12-18T03:24:08.963Z,12.20
2022-12-18T03:26:41.863Z,11.77
2022-12-18T03:29:24.742Z,12.32
2022-12-18T03:31:56.952Z,13.80
2022-12-18T03:34:36.773Z,12.75
2022-12-18T03:37:08.254Z,14.75
2022-12-18T03:39:37.902Z,15.57
2022-12-18T03:42:40.403Z,16.30
2022-12-18T03:45:19.682Z,16.45
2022-12-18T03:48:00.960Z,16.20
2022-12-18T03:50:59.202Z,17.30
2022-12-18T03:53:45.323Z,13.97
2022-12-18T03:56:15.282Z,15.23
2022-12-18T03:58:44.957Z,14.88
2022-12-18T04:01:21.935Z,14.27
2022-12-18T04:03:50.624Z,16.65
2022-12-18T04:06:20.714Z,15.73
2022-12-18T04:08:48.578Z,17.70
2022-12-18T04:11:20.503Z,20.02
2022-12-18T04:13:48.246Z,18.42
2022-12-18T04:16:20.824Z,17.33
2022-12-18T04:18:52.039Z,19.63
2022-12-18T04:21:20.546Z,18.63
2022-12-18T04:23:48.809Z,19.48
2022-12-18T04:26:18.195Z,19.25
2022-12-18T04:28:54.476Z,16.50
2022-12-18T04:31:22.598Z,18.67
2022-12-18T04:33:50.095Z,19.45
2022-12-18T04:36:17.478Z,18.20
2022-12-18T04:38:45.533Z,19.38
2022-12-18T04:41:15.586Z,16.85
2022-12-18T04:43:44.626Z,17.03
2022-12-18T04:46:11.405Z,16.52
2022-12-18T04:48:39.272Z,19.38
2022-12-18T04:51:07.459Z,17.15
2022-12-18T04:53:34.813Z,16.30
2022-12-18T04:56:12.409Z,18.47
2022-12-18T04:58:41.558Z,17.83
2022-12-18T05:01:09.408Z,16.45
2022-12-18T05:03:37.583Z,18.33
2022-12-18T05:06:06.009Z,18.75
2022-12-18T05:08:33.213Z,16.13
2022-12-18T05:11:09.369Z,17.15
2022-12-18T05:13:38.727Z,18.33
2022-12-18T05:16:07.445Z,18.30
2022-12-18T05:18:34.872Z,18.20
2022-12-18T05:21:02.023Z,20.13
2022-12-18T05:23:29.272Z,15.30
2022-12-18T05:26:02.352Z,18.13
2022-12-18T05:28:31.645Z,17.45
2022-12-18T05:31:01.826Z,18.20
2022-12-18T05:33:32.672Z,17.17
2022-12-18T05:36:01.521Z,17.70
2022-12-18T05:38:30.105Z,21.38
2022-12-18T05:40:57.986Z,17.45
2022-12-18T05:43:27.927Z,17.70
2022-12-18T05:45:55.584Z,22.60
2022-12-18T05:48:22.996Z,17.73
2022-12-18T05:50:51.368Z,20.25
2022-12-18T05:53:20.576Z,17.92
2022-12-18T05:55:48.534Z,17.67
2022-12-18T05:58:16.297Z,17.23
2022-12-18T06:00:46.016Z,18.58
2022-12-18T06:03:14.627Z,18.25
2022-12-18T06:05:44.796Z,18.25
2022-12-18T06:08:13.356Z,19.85
2022-12-18T06:10:40.691Z,18.87
2022-12-18T06:13:08.397Z,17.67
2022-12-18T06:15:38.315Z,18.67
2022-12-18T06:18:05.116Z,19.00
2022-12-18T06:20:33.612Z,17.02
2022-12-18T06:23:01.342Z,17.20
2022-12-18T06:25:28.188Z,18.83
2022-12-18T06:27:55.065Z,17.52
2022-12-18T06:30:21.957Z,19.70
2022-12-18T06:32:56.418Z,20.25
2022-12-18T06:35:24.143Z,20.23
2022-12-18T06:37:50.925Z,18.75
2022-12-18T06:40:18.188Z,19.77
2022-12-18T06:42:45.052Z,17.50
2022-12-18T06:45:12.057Z,18.13
2022-12-18T06:47:41.664Z,19.87
2022-12-18T06:50:09.174Z,20.90
2022-12-18T06:52:35.939Z,20.33
2022-12-18T06:55:03.003Z,18.77
2022-12-18T06:57:29.949Z,17.83
2022-12-18T06:59:56.751Z,21.80
2022-12-18T07:02:23.584Z,18.63
2022-12-18T07:04:50.434Z,19.65
2022-12-18T07:07:17.877Z,18.55
2022-12-18T07:09:44.649Z,18.65
2022-12-18T07:12:11.446Z,18.87
2022-12-18T07:14:38.236Z,17.85
2022-12-18T07:17:05.089Z,20.92
2022-12-18T07:19:33.591Z,18.15
2022-12-18T07:22:00.505Z,19.20
2022-12-18T07:24:27.413Z,20.83
2022-12-18T07:26:54.331Z,20.83
2022-12-18T07:29:22.173Z,21.42
2022-12-18T07:31:49.355Z,18.48
2022-12-18T07:34:16.412Z,17.83
2022-12-18T07:36:43.252Z,20.33
2022-12-18T07:39:12.489Z,23.92
2022-12-18T07:41:43.751Z,21.38
2022-12-18T07:44:16.250Z,22.98
2022-12-18T07:46:43.185Z,24.25
2022-12-18T07:49:09.918Z,22.10
2022-12-18T07:51:36.769Z,21.50
2022-12-18T07:54:03.594Z,19.35
2022-12-18T07:56:31.676Z,19.58
2022-12-18T07:59:00.313Z,18.98
2022-12-18T08:01:30.637Z,16.67
2022-12-18T08:03:58.543Z,18.85
2022-12-18T08:06:25.335Z,18.92
2022-12-18T08:08:56.421Z,18.60
2022-12-18T08:11:24.854Z,19.27
2022-12-18T08:13:52.139Z,20.23
2022-12-18T08:16:20.044Z,25.08
2022-12-18T08:18:47.698Z,18.85
2022-12-18T08:21:17.287Z,17.85
2022-12-18T08:23:44.355Z,20.50
2022-12-18T08:26:14.737Z,20.40
2022-12-18T08:28:41.886Z,22.63
2022-12-18T08:31:10.061Z,22.85
2022-12-18T08:33:38.766Z,22.90
2022-12-18T08:36:06.726Z,23.35
2022-12-18T08:38:34.193Z,23.10
2022-12-18T08:41:01.850Z,21.98
2022-12-18T08:43:29.037Z,23.90
2022-12-18T08:45:56.095Z,22.77
2022-12-18T08:48:23.025Z,22.23
2022-12-18T08:50:57.519Z,24.73
2022-12-18T08:53:27.559Z,22.23
2022-12-18T08:55:59.872Z,21.60
2022-12-18T08:58:26.779Z,20.38
2022-12-18T09:00:53.578Z,21.95
2022-12-18T09:03:20.902Z,22.90
2022-12-18T09:05:47.781Z,27.17
2022-12-18T09:08:14.652Z,25.90
2022-12-18T09:10:46.388Z,28.13
2022-12-18T09:13:13.966Z,28.20
2022-12-18T09:15:44.603Z,23.23
2022-12-18T09:18:11.403Z,25.27
2022-12-18T09:20:39.301Z,27.02
2022-12-18T09:23:06.689Z,22.77
2022-12-18T09:25:34.486Z,25.13
2022-12-18T09:28:01.387Z,27.87
2022-12-18T09:30:28.985Z,30.00
2022-12-18T09:32:56.036Z,25.20
2022-12-18T09:35:23.126Z,28.45
2022-12-18T09:37:49.917Z,31.85
2022-12-18T09:40:23.410Z,31.67
2022-12-18T09:42:56.187Z,33.58
2022-12-18T09:45:24.487Z,30.77
2022-12-18T09:47:53.381Z,31.52
2022-12-18T09:50:35.857Z,29.02
2022-12-18T09:53:19.446Z,30.33
2022-12-18T09:55:49.365Z,29.00
2022-12-18T09:58:28.258Z,33.80
2022-12-18T10:00:55.682Z,33.63
2022-12-18T10:03:22.896Z,28.40
2022-12-18T10:06:07.730Z,31.57
2022-12-18T10:08:49.297Z,36.00
2022-12-18T10:11:43.351Z,35.30
2022-12-18T10:14:37.444Z,34.35
2022-12-18T10:17:20.047Z,35.65
2022-12-18T10:19:56.007Z,31.63
2022-12-18T10:22:54.964Z,31.92
2022-12-18T10:25:26.472Z,34.85
2022-12-18T10:28:01.156Z,34.08
2022-12-18T10:30:28.042Z,27.70
2022-12-18T10:32:54.908Z,30.83
2022-12-18T10:35:25.021Z,27.95
2022-12-18T10:38:04.017Z,27.13
2022-12-18T10:40:31.255Z,25.40
2022-12-18T10:43:05.996Z,29.70
2022-12-18T10:45:32.869Z,27.03
2022-12-18T10:48:00.034Z,31.08
2022-12-18T10:51:08.738Z,27.58
2022-12-18T10:53:24.705Z,28.80
2022-12-18T10:55:55.059Z,25.95
2022-12-18T10:58:27.489Z,28.97
2022-12-18T11:01:18.158Z,30.77
2022-12-18T11:04:10.427Z,28.73
2022-12-18T11:06:54.370Z,29.52
2022-12-18T11:09:23.891Z,32.00
2022-12-18T11:11:52.309Z,31.80
2022-12-18T11:14:47.335Z,34.53
2022-12-18T11:17:35.593Z,32.05
2022-12-18T11:20:06.332Z,31.38
2022-12-18T11:22:35.853Z,30.30
2022-12-18T11:27:57.634Z,31.35
2022-12-18T11:30:28.984Z,33.65
2022-12-18T11:33:01.592Z,30.77
2022-12-18T11:35:28.261Z,28.48
2022-12-18T11:38:00.719Z,29.30
2022-12-18T11:40:41.259Z,32.10
2022-12-18T11:43:15.936Z,29.30
2022-12-18T11:45:53.623Z,31.77
2022-12-18T11:48:29.106Z,30.23
2022-12-18T11:50:58.580Z,29.03
2022-12-18T11:53:27.277Z,30.35
2022-12-18T11:55:59.844Z,30.42
2022-12-18T11:58:47.679Z,32.60
2022-12-18T12:01:26.661Z,33.08
2022-12-18T12:04:08.350Z,31.03
2022-12-18T12:07:03.332Z,31.67
2022-12-18T12:10:19.688Z,28.98
2022-12-18T12:12:48.663Z,31.40
2022-12-18T12:15:45.601Z,32.65
2022-12-18T12:18:24.287Z,27.03
2022-12-18T12:20:54.571Z,30.70
2022-12-18T12:23:26.084Z,31.83
2022-12-18T12:26:03.960Z,29.73
2022-12-18T12:28:42.821Z,31.20
2022-12-18T12:31:31.030Z,31.83
2022-12-18T12:34:04.872Z,31.83
2022-12-18T12:36:39.115Z,35.00
2022-12-18T12:39:12.773Z,32.80
2022-12-18T12:41:42.695Z,34.22
2022-12-18T12:44:17.538Z,31.57
2022-12-18T12:46:44.863Z,31.48
2022-12-18T12:49:16.836Z,32.53
2022-12-18T12:51:48.660Z,31.55
2022-12-18T12:54:24.636Z,35.63
2022-12-18T12:57:24.437Z,33.07
2022-12-18T13:00:14.043Z,32.50
2022-12-18T13:02:54.046Z,32.38
2022-12-18T13:05:39.658Z,30.95
2022-12-18T13:08:12.457Z,31.55
2022-12-18T13:10:41.930Z,32.83
2022-12-18T13:13:10.669Z,30.35
2022-12-18T13:15:46.324Z,31.05
2022-12-18T13:18:24.901Z,31.88
2022-12-18T13:21:04.942Z,30.35
2022-12-18T13:23:41.883Z,32.23
2022-12-18T13:26:09.351Z,33.45
2022-12-18T13:28:48.260Z,33.50
2022-12-18T13:31:36.517Z,29.27
2022-12-18T13:34:26.760Z,34.03
2022-12-18T13:36:57.046Z,31.40
2022-12-18T13:39:34.751Z,30.20
2022-12-18T13:42:08.356Z,30.42
2022-12-18T13:44:40.902Z,30.05
2022-12-18T13:47:32.166Z,33.10
2022-12-18T13:49:59.377Z,29.97
2022-12-18T13:52:29.346Z,30.77
2022-12-18T13:54:59.498Z,27.70
2022-12-18T13:57:28.980Z,28.90
2022-12-18T13:59:58.697Z,28.95
2022-12-18T14:02:28.353Z,32.23
2022-12-18T14:04:56.555Z,30.88
2022-12-18T14:07:31.478Z,27.30
2022-12-18T14:10:40.796Z,30.20
2022-12-18T14:12:52.649Z,26.85
2022-12-18T14:15:42.289Z,31.80
2022-12-18T14:18:32.299Z,29.85
2022-12-18T14:21:01.701Z,34.60
2022-12-18T14:23:43.212Z,29.70
2022-12-18T14:26:28.569Z,32.03
2022-12-18T14:29:16.424Z,36.33
2022-12-18T14:31:44.327Z,34.05
2022-12-18T14:34:18.361Z,38.53
2022-12-18T14:36:54.220Z,37.05
2022-12-18T14:39:21.194Z,33.65
2022-12-18T14:41:49.993Z,32.00
2022-12-18T14:44:16.992Z,32.83
2022-12-18T14:46:46.185Z,36.45
2022-12-18T14:49:19.368Z,33.08
2022-12-18T14:51:52.795Z,36.40
2022-12-18T14:54:22.171Z,35.70
2022-12-18T14:57:00.757Z,38.72
2022-12-18T14:59:29.685Z,38.00
2022-12-18T15:02:14.839Z,40.28
2022-12-18T15:04:45.174Z,41.22
2022-12-18T15:07:17.245Z,42.87
2022-12-18T15:10:02.022Z,37.67
2022-12-18T15:12:44.852Z,39.80
2022-12-18T15:15:37.636Z,37.00
2022-12-18T15:18:12.673Z,36.72
2022-12-18T15:20:46.306Z,41.20
2022-12-18T15:23:50.220Z,40.47
2022-12-18T15:26:20.209Z,42.08
2022-12-18T15:28:51.854Z,39.78
2022-12-18T15:31:32.876Z,41.67
2022-12-18T15:34:14.122Z,38.93
2022-12-18T15:36:41.723Z,45.10
2022-12-18T15:39:12.972Z,45.30
2022-12-18T15:41:41.043Z,40.45
2022-12-18T15:44:26.251Z,43.45
2022-12-18T15:46:53.932Z,42.47
2022-12-18T15:49:21.833Z,37.53
2022-12-18T15:51:56.278Z,40.85
2022-12-18T15:54:24.292Z,37.80
2022-12-18T15:56:51.624Z,38.25
2022-12-18T15:59:21.010Z,37.73
2022-12-18T16:01:51.213Z,38.08
2022-12-18T16:04:21.570Z,38.20
2022-12-18T16:09:39.543Z,36.72
2022-12-18T16:12:25.311Z,34.87
2022-12-18T16:14:53.007Z,35.00
2022-12-18T16:17:20.541Z,30.80
2022-12-18T16:19:56.738Z,30.67
2022-12-18T16:22:27.582Z,31.02
2022-12-18T16:24:56.513Z,34.07
2022-12-18T16:27:25.554Z,35.25
2022-12-18T16:29:53.470Z,30.33
2022-12-18T16:32:26.412Z,30.40
2022-12-18T16:34:54.601Z,33.13
2022-12-18T16:37:23.933Z,30.53
2022-12-18T16:39:51.620Z,32.22
2022-12-18T16:42:21.511Z,29.95
2022-12-18T16:44:50.700Z,31.98
2022-12-18T16:47:18.804Z,31.88
2022-12-18T16:49:47.101Z,30.83
2022-12-18T16:52:17.795Z,29.15
2022-12-18T16:54:45.884Z,25.52
2022-12-18T16:57:15.823Z,27.05
2022-12-18T16:59:45.329Z,26.23
2022-12-18T17:02:27.305Z,27.43
2022-12-18T17:04:59.420Z,30.67
2022-12-18T17:07:28.679Z,28.63
2022-12-18T17:09:56.793Z,28.13
2022-12-18T17:12:28.201Z,29.00
2022-12-18T17:14:56.293Z,26.80
2022-12-18T17:17:24.339Z,26.30
2022-12-18T17:19:53.115Z,26.33
2022-12-18T17:22:22.369Z,31.38
2022-12-18T17:24:51.727Z,31.60
2022-12-18T17:27:19.632Z,31.93
2022-12-18T17:29:48.781Z,29.38
2022-12-18T17:32:18.789Z,29.35
2022-12-18T17:34:47.419Z,28.70
2022-12-18T17:37:15.919Z,27.88
2022-12-18T17:39:44.273Z,28.87
2022-12-18T17:42:15.446Z,28.38
2022-12-18T17:44:45.072Z,29.08
2022-12-18T17:47:14.842Z,25.05
2022-12-18T17:49:43.783Z,25.67
2022-12-18T17:52:11.952Z,21.60
2022-12-18T17:54:40.061Z,28.90
2022-12-18T17:57:08.276Z,27.58
2022-12-18T17:59:36.005Z,27.90
2022-12-18T18:02:03.913Z,26.20
2022-12-18T18:04:32.855Z,23.17
2022-12-18T18:07:01.597Z,20.85
2022-12-18T18:09:29.867Z,24.35
2022-12-18T18:11:57.386Z,24.70
2022-12-18T18:14:25.857Z,22.20
2022-12-18T18:16:58.212Z,22.80
2022-12-18T18:19:34.044Z,25.90
2022-12-18T18:22:01.324Z,22.77
2022-12-18T18:24:29.042Z,27.60
2022-12-18T18:26:58.473Z,25.77
2022-12-18T18:29:27.846Z,23.67
2022-12-18T18:31:58.206Z,26.25
2022-12-18T18:34:29.135Z,23.15
2022-12-18T18:36:56.808Z,24.00
2022-12-18T18:39:25.858Z,24.27
2022-12-18T18:41:53.825Z,29.07
2022-12-18T18:44:25.578Z,25.90
2022-12-18T18:46:58.231Z,23.02
2022-12-18T18:49:28.191Z,27.33
2022-12-18T18:51:59.075Z,24.95
2022-12-18T18:54:29.121Z,24.30
2022-12-18T18:57:19.916Z,24.70
2022-12-18T18:59:47.204Z,24.17
2022-12-18T19:02:16.913Z,23.60
2022-12-18T19:04:47.030Z,25.30
2022-12-18T19:07:29.641Z,21.20
2022-12-18T19:10:04.272Z,25.00
2022-12-18T19:12:33.964Z,23.42
2022-12-18T19:15:01.247Z,22.95
2022-12-18T19:17:30.593Z,24.65
2022-12-18T19:19:59.698Z,25.10
2022-12-18T19:22:27.263Z,21.67
2022-12-18T19:24:55.871Z,24.38
2022-12-18T19:27:23.785Z,20.45
2022-12-18T19:29:51.215Z,21.23
2022-12-18T19:32:19.009Z,21.43
2022-12-18T19:34:48.041Z,22.95
2022-12-18T19:37:16.151Z,23.00
2022-12-18T19:39:43.962Z,23.75
2022-12-18T19:42:13.088Z,25.52
2022-12-18T19:44:42.572Z,23.33
2022-12-18T19:47:10.625Z,26.88
2022-12-18T19:49:38.501Z,25.80
2022-12-18T19:52:06.093Z,26.55
2022-12-18T19:54:33.734Z,26.60
2022-12-18T19:57:01.310Z,25.07
2022-12-18T19:59:29.604Z,25.75
2022-12-18T20:01:57.748Z,26.60
2022-12-18T20:04:27.078Z,25.60
2022-12-18T20:06:58.570Z,30.15
2022-12-18T20:09:26.964Z,31.47
2022-12-18T20:11:56.923Z,30.98
2022-12-18T20:14:25.006Z,28.08
2022-12-18T20:16:56.711Z,34.70
2022-12-18T20:19:26.832Z,31.60
2022-12-18T20:21:54.731Z,30.17
2022-12-18T20:24:22.423Z,27.08
2022-12-18T20:26:50.068Z,30.30
2022-12-18T20:29:18.101Z,26.92
2022-12-18T20:31:46.575Z,27.85
2022-12-18T20:34:15.582Z,32.53
2022-12-18T20:36:43.580Z,31.05
2022-12-18T20:39:13.367Z,32.60
2022-12-18T20:41:41.488Z,28.13
2022-12-18T20:44:22.699Z,30.95
2022-12-18T20:46:57.127Z,27.27
2022-12-18T20:49:26.087Z,30.80
2022-12-18T20:51:55.101Z,30.83
2022-12-18T20:54:24.371Z,31.40
2022-12-18T20:56:52.224Z,33.42
2022-12-18T20:59:19.247Z,30.53
2022-12-18T21:01:48.898Z,31.98
2022-12-18T21:04:18.982Z,29.88
2022-12-18T21:06:52.882Z,30.00
2022-12-18T21:09:25.009Z,31.13
2022-12-18T21:11:52.015Z,29.40
2022-12-18T21:14:22.937Z,31.35
2022-12-18T21:16:50.643Z,29.27
2022-12-18T21:19:20.555Z,32.47
2022-12-18T21:21:47.979Z,30.25
2022-12-18T21:24:15.859Z,29.33
2022-12-18T21:26:45.791Z,32.10
2022-12-18T21:29:19.079Z,30.27
2022-12-18T21:31:47.040Z,31.40
2022-12-18T21:34:25.761Z,30.67
2022-12-18T21:36:53.737Z,30.23
2022-12-18T21:39:21.240Z,29.25
2022-12-18T21:41:50.161Z,28.35
2022-12-18T21:44:19.538Z,28.92
2022-12-18T21:46:53.126Z,31.33
2022-12-18T21:49:24.344Z,33.50
2022-12-18T21:51:56.033Z,31.27
2022-12-18T21:54:23.809Z,30.50
2022-12-18T21:56:56.261Z,29.15
2022-12-18T21:59:29.640Z,31.65
2022-12-18T22:02:00.502Z,29.03
2022-12-18T22:04:28.539Z,29.60
2022-12-18T22:06:56.733Z,30.45
2022-12-18T22:09:26.155Z,32.38
2022-12-18T22:11:53.572Z,30.52
2022-12-18T22:14:22.106Z,30.03
2022-12-18T22:16:49.977Z,32.20
2022-12-18T22:19:18.565Z,31.20
2022-12-18T22:21:49.786Z,30.92
2022-12-18T22:24:22.345Z,31.15
2022-12-18T22:26:50.354Z,31.40
2022-12-18T22:29:20.125Z,30.67
2022-12-18T22:31:47.286Z,32.58
2022-12-18T22:34:14.191Z,31.52
2022-12-18T22:36:46.589Z,31.30
2022-12-18T22:39:19.608Z,32.27
2022-12-18T22:41:46.473Z,30.52
2022-12-18T22:44:15.726Z,30.65
2022-12-18T22:46:50.803Z,32.55
2022-12-18T22:49:31.350Z,28.50
2022-12-18T22:51:59.177Z,28.20
2022-12-18T22:54:25.930Z,32.72
2022-12-18T22:56:52.633Z,32.10
2022-12-18T22:59:23.449Z,28.00
2022-12-18T23:01:54.183Z,31.42
2022-12-18T23:04:31.215Z,31.70
2022-12-18T23:07:05.104Z,35.63
2022-12-18T23:09:32.807Z,31.80
2022-12-18T23:11:59.799Z,34.72
2022-12-18T23:14:26.882Z,33.20
2022-12-18T23:16:53.634Z,37.03
2022-12-18T23:19:21.640Z,34.08
2022-12-18T23:21:51.376Z,31.38
2022-12-18T23:24:18.278Z,32.38
2022-12-18T23:26:45.164Z,35.42
2022-12-18T23:29:12.024Z,28.33
2022-12-18T23:31:39.795Z,34.17
2022-12-18T23:34:07.364Z,29.90
2022-12-18T23:36:41.835Z,29.70
2022-12-18T23:39:22.373Z,29.83
2022-12-18T23:41:59.646Z,30.17
2022-12-18T23:44:27.153Z,30.30
2022-12-18T23:46:54.025Z,26.38
2022-12-18T23:49:20.853Z,30.15
2022-12-18T23:51:47.817Z,26.40
2022-12-18T23:54:14.608Z,31.90
2022-12-18T23:56:41.482Z,27.13
2022-12-18T23:59:08.398Z,27.85
